Atlas Wind — 9HA2547 — position and weather

sailwx.info

Track history (hours):
 
Tides and Currents Weather Stations Pressure Air Temp Water Temp Dewpoint Dewpoint Depression Visibility Wind Speed Wind Dir Waves Ship Positions

Atlas Wind

Last reported at 2018-Jan-19 02:10 UTC. Time now 2018-Jan-21 20:51 UTC.
Position N 37°20' E 023°36'.

Length 100 m; draft 7 m.

Type: Cargo ship. MMSI: 248848000.

Date/timePositionNaut miles runAvg speedWind from/ knotsBaromVisibWave heightAir tempDewpointWater temp
2018-Jan-19 02:10N 37°20' E 023°36'211.2
2018-Jan-19 01:59N 37°22' E 023°37'511.4
2018-Jan-19 01:30N 37°27' E 023°39'611.4
2018-Jan-19 01:00N 37°33' E 023°40'611.4
2018-Jan-19 00:31N 37°38' E 023°42'511.0
2018-Jan-19 00:00N 37°43' E 023°40'611.6
2018-Jan-18 23:31N 37°49' E 023°37'611.1
2018-Jan-18 23:00N 37°54' E 023°34'2 3.3
2018-Jan-18 22:30N 37°55' E 023°34'0 0.1
2018-Jan-18 22:01N 37°55' E 023°34'0 0.0
2018-Jan-18 21:31N 37°55' E 023°34'0 0.0
2018-Jan-18 21:00N 37°55' E 023°34'0 0.1
2018-Jan-18 20:31N 37°55' E 023°34'0 0.1
2018-Jan-18 20:01N 37°55' E 023°34'0 0.0
2018-Jan-18 19:30N 37°55' E 023°34'0 0.0
2018-Jan-18 19:00N 37°55' E 023°34'0 0.0
2018-Jan-18 18:30N 37°55' E 023°34'0 0.0
2018-Jan-18 18:01N 37°55' E 023°34'0 0.0
2018-Jan-18 17:31N 37°55' E 023°34'0 0.0
2018-Jan-18 17:00N 37°55' E 023°34'0 0.0
2018-Jan-18 16:31N 37°55' E 023°34'0 0.0
2018-Jan-18 16:00N 37°55' E 023°34'0 0.0
2018-Jan-18 15:30N 37°55' E 023°34'0 0.0
2018-Jan-18 15:00N 37°55' E 023°34'0 0.0
2018-Jan-18 14:31N 37°55' E 023°34'0 0.0
2018-Jan-18 14:01N 37°55' E 023°34'0 0.1
2018-Jan-18 13:30N 37°55' E 023°34'0 0.0
2018-Jan-18 13:01N 37°55' E 023°34'0 0.8
2018-Jan-18 12:31N 37°55' E 023°34'1 1.8
2018-Jan-18 12:00N 37°55' E 023°35'3 5.5
2018-Jan-18 11:30N 37°53' E 023°37'4 8.0
2018-Jan-18 11:01N 37°49' E 023°40'4 8.9
2018-Jan-18 10:30N 37°45' E 023°43'4 8.9
2018-Jan-18 10:00N 37°41' E 023°45'4 8.4
2018-Jan-18 09:31N 37°39' E 023°50'5 9.0
2018-Jan-18 09:00N 37°38' E 023°55'8 9.0
2018-Jan-18 08:07N 37°37' E 024°05'1 9.5
2018-Jan-18 08:01N 37°37' E 024°06'611.0
2018-Jan-18 07:30N 37°41' E 024°12'510.5
2018-Jan-18 07:00N 37°44' E 024°17'5 8.8
2018-Jan-18 06:26N 37°48' E 024°22'4 9.0
2018-Jan-18 06:00N 37°50' E 024°26'510.0
2018-Jan-18 05:31N 37°53' E 024°31'610.9
2018-Jan-18 04:56N 37°58' E 024°35'5110.4
2018-Jan-18 00:03N 38°44' E 024°09'111.4
2018-Jan-17 23:57N 38°45' E 024°08'  
2018-Jan-11 22:31N 32°58' E 034°34'012.0
2018-Jan-11 22:29N 32°58' E 034°34'612.2
2018-Jan-11 22:00N 32°57' E 034°41'  
Track history (hours):
 
Tides and Currents Weather Stations Pressure Air Temp Water Temp Dewpoint Dewpoint Depression Visibility Wind Speed Wind Dir Waves Ship Positions

Atlas Wind

Last reported at 2018-Jan-19 02:10 UTC. Time now 2018-Jan-21 20:51 UTC.
Position N 37°20' E 023°36'.

Length 100 m; draft 7 m.

Type: Cargo ship. MMSI: 248848000.

Date/timePositionNaut miles runAvg speedWind from/ knotsBaromVisibWave heightAir tempDewpointWater temp
2018-Jan-19 02:10N 37°20' E 023°36'211.2
2018-Jan-19 01:59N 37°22' E 023°37'511.4
2018-Jan-19 01:30N 37°27' E 023°39'611.4
2018-Jan-19 01:00N 37°33' E 023°40'611.4
2018-Jan-19 00:31N 37°38' E 023°42'511.0
2018-Jan-19 00:00N 37°43' E 023°40'611.6
2018-Jan-18 23:31N 37°49' E 023°37'611.1
2018-Jan-18 23:00N 37°54' E 023°34'2 3.3
2018-Jan-18 22:30N 37°55' E 023°34'0 0.1
2018-Jan-18 22:01N 37°55' E 023°34'0 0.0
2018-Jan-18 21:31N 37°55' E 023°34'0 0.0
2018-Jan-18 21:00N 37°55' E 023°34'0 0.1
2018-Jan-18 20:31N 37°55' E 023°34'0 0.1
2018-Jan-18 20:01N 37°55' E 023°34'0 0.0
2018-Jan-18 19:30N 37°55' E 023°34'0 0.0
2018-Jan-18 19:00N 37°55' E 023°34'0 0.0
2018-Jan-18 18:30N 37°55' E 023°34'0 0.0
2018-Jan-18 18:01N 37°55' E 023°34'0 0.0
2018-Jan-18 17:31N 37°55' E 023°34'0 0.0
2018-Jan-18 17:00N 37°55' E 023°34'0 0.0
2018-Jan-18 16:31N 37°55' E 023°34'0 0.0
2018-Jan-18 16:00N 37°55' E 023°34'0 0.0
2018-Jan-18 15:30N 37°55' E 023°34'0 0.0
2018-Jan-18 15:00N 37°55' E 023°34'0 0.0
2018-Jan-18 14:31N 37°55' E 023°34'0 0.0
2018-Jan-18 14:01N 37°55' E 023°34'0 0.1
2018-Jan-18 13:30N 37°55' E 023°34'0 0.0
2018-Jan-18 13:01N 37°55' E 023°34'0 0.8
2018-Jan-18 12:31N 37°55' E 023°34'1 1.8
2018-Jan-18 12:00N 37°55' E 023°35'3 5.5
2018-Jan-18 11:30N 37°53' E 023°37'4 8.0
2018-Jan-18 11:01N 37°49' E 023°40'4 8.9
2018-Jan-18 10:30N 37°45' E 023°43'4 8.9
2018-Jan-18 10:00N 37°41' E 023°45'4 8.4
2018-Jan-18 09:31N 37°39' E 023°50'5 9.0
2018-Jan-18 09:00N 37°38' E 023°55'8 9.0
2018-Jan-18 08:07N 37°37' E 024°05'1 9.5
2018-Jan-18 08:01N 37°37' E 024°06'611.0
2018-Jan-18 07:30N 37°41' E 024°12'510.5
2018-Jan-18 07:00N 37°44' E 024°17'5 8.8
2018-Jan-18 06:26N 37°48' E 024°22'4 9.0
2018-Jan-18 06:00N 37°50' E 024°26'510.0
2018-Jan-18 05:31N 37°53' E 024°31'610.9
2018-Jan-18 04:56N 37°58' E 024°35'5110.4
2018-Jan-18 00:03N 38°44' E 024°09'111.4
2018-Jan-17 23:57N 38°45' E 024°08'  
2018-Jan-11 22:31N 32°58' E 034°34'012.0
2018-Jan-11 22:29N 32°58' E 034°34'612.2
2018-Jan-11 22:00N 32°57' E 034°41'  

Dump ship's entire track history